sensor_id;sensor_type;location;lat;lon;timestamp;P1;durP1;ratioP1;P2;durP2;ratioP2
55069;SDS011;40967;52.070;8.596;2022-12-18T00:01:47;13.13;;;5.60;;
55069;SDS011;40967;52.070;8.596;2022-12-18T00:04:22;11.77;;;5.70;;
55069;SDS011;40967;52.070;8.596;2022-12-18T00:06:49;13.07;;;5.93;;
55069;SDS011;40967;52.070;8.596;2022-12-18T00:09:15;10.47;;;4.63;;
55069;SDS011;40967;52.070;8.596;2022-12-18T00:11:41;10.15;;;4.70;;
55069;SDS011;40967;52.070;8.596;2022-12-18T00:14:06;11.63;;;5.40;;
55069;SDS011;40967;52.070;8.596;2022-12-18T00:16:32;11.07;;;5.27;;
55069;SDS011;40967;52.070;8.596;2022-12-18T00:19:00;10.13;;;5.15;;
55069;SDS011;40967;52.070;8.596;2022-12-18T00:21:26;11.55;;;5.57;;
55069;SDS011;40967;52.070;8.596;2022-12-18T00:23:56;10.52;;;5.60;;
55069;SDS011;40967;52.070;8.596;2022-12-18T00:26:23;10.25;;;4.38;;
55069;SDS011;40967;52.070;8.596;2022-12-18T00:28:53;9.57;;;4.68;;
55069;SDS011;40967;52.070;8.596;2022-12-18T00:31:20;9.80;;;4.65;;
55069;SDS011;40967;52.070;8.596;2022-12-18T00:33:47;9.90;;;4.60;;
55069;SDS011;40967;52.070;8.596;2022-12-18T00:36:14;10.00;;;4.83;;
55069;SDS011;40967;52.070;8.596;2022-12-18T00:38:42;10.05;;;4.65;;
55069;SDS011;40967;52.070;8.596;2022-12-18T00:41:08;11.68;;;4.95;;
55069;SDS011;40967;52.070;8.596;2022-12-18T00:43:35;9.90;;;4.57;;
55069;SDS011;40967;52.070;8.596;2022-12-18T00:46:01;9.60;;;4.35;;
55069;SDS011;40967;52.070;8.596;2022-12-18T00:48:27;9.88;;;4.63;;
55069;SDS011;40967;52.070;8.596;2022-12-18T00:50:52;10.13;;;4.23;;
55069;SDS011;40967;52.070;8.596;2022-12-18T00:53:18;9.43;;;4.43;;
55069;SDS011;40967;52.070;8.596;2022-12-18T00:55:43;8.95;;;4.00;;
55069;SDS011;40967;52.070;8.596;2022-12-18T00:58:11;9.48;;;4.60;;
55069;SDS011;40967;52.070;8.596;2022-12-18T01:00:37;10.23;;;4.80;;
55069;SDS011;40967;52.070;8.596;2022-12-18T01:03:03;8.93;;;4.13;;
55069;SDS011;40967;52.070;8.596;2022-12-18T01:05:29;8.57;;;4.32;;
55069;SDS011;40967;52.070;8.596;2022-12-18T01:07:54;10.43;;;4.87;;
55069;SDS011;40967;52.070;8.596;2022-12-18T01:10:20;10.10;;;4.77;;
55069;SDS011;40967;52.070;8.596;2022-12-18T01:12:46;10.73;;;4.22;;
55069;SDS011;40967;52.070;8.596;2022-12-18T01:15:12;10.23;;;4.90;;
55069;SDS011;40967;52.070;8.596;2022-12-18T01:17:39;12.35;;;5.13;;
55069;SDS011;40967;52.070;8.596;2022-12-18T01:20:04;13.40;;;5.80;;
55069;SDS011;40967;52.070;8.596;2022-12-18T01:22:30;12.00;;;5.25;;
55069;SDS011;40967;52.070;8.596;2022-12-18T01:24:56;10.17;;;4.93;;
55069;SDS011;40967;52.070;8.596;2022-12-18T01:27:21;11.67;;;5.10;;
55069;SDS011;40967;52.070;8.596;2022-12-18T01:29:47;10.87;;;5.13;;
55069;SDS011;40967;52.070;8.596;2022-12-18T01:32:12;11.87;;;5.30;;
55069;SDS011;40967;52.070;8.596;2022-12-18T01:34:37;12.33;;;5.50;;
55069;SDS011;40967;52.070;8.596;2022-12-18T01:37:03;10.97;;;5.00;;
55069;SDS011;40967;52.070;8.596;2022-12-18T01:39:29;10.75;;;4.97;;
55069;SDS011;40967;52.070;8.596;2022-12-18T01:41:56;9.88;;;4.57;;
55069;SDS011;40967;52.070;8.596;2022-12-18T01:49:50;10.30;;;4.95;;
55069;SDS011;40967;52.070;8.596;2022-12-18T01:52:16;10.57;;;4.65;;
55069;SDS011;40967;52.070;8.596;2022-12-18T01:54:42;10.50;;;4.93;;
55069;SDS011;40967;52.070;8.596;2022-12-18T01:57:09;9.93;;;4.65;;
55069;SDS011;40967;52.070;8.596;2022-12-18T01:59:34;11.07;;;4.90;;
55069;SDS011;40967;52.070;8.596;2022-12-18T02:02:02;10.98;;;5.00;;
55069;SDS011;40967;52.070;8.596;2022-12-18T02:04:28;12.05;;;5.68;;
55069;SDS011;40967;52.070;8.596;2022-12-18T02:09:50;10.48;;;5.10;;
55069;SDS011;40967;52.070;8.596;2022-12-18T02:12:19;9.90;;;4.77;;
55069;SDS011;40967;52.070;8.596;2022-12-18T02:17:38;10.75;;;4.80;;
55069;SDS011;40967;52.070;8.596;2022-12-18T02:20:20;10.00;;;4.43;;
55069;SDS011;40967;52.070;8.596;2022-12-18T02:28:08;9.00;;;4.20;;
55069;SDS011;40967;52.070;8.596;2022-12-18T02:30:37;8.55;;;3.63;;
55069;SDS011;40967;52.070;8.596;2022-12-18T02:33:05;9.68;;;4.40;;
55069;SDS011;40967;52.070;8.596;2022-12-18T02:35:33;8.15;;;3.60;;
55069;SDS011;40967;52.070;8.596;2022-12-18T02:38:01;7.28;;;3.70;;
55069;SDS011;40967;52.070;8.596;2022-12-18T02:40:28;7.87;;;3.80;;
55069;SDS011;40967;52.070;8.596;2022-12-18T02:42:55;8.23;;;3.60;;
55069;SDS011;40967;52.070;8.596;2022-12-18T02:45:20;8.33;;;4.07;;
55069;SDS011;40967;52.070;8.596;2022-12-18T02:47:47;8.10;;;3.60;;
55069;SDS011;40967;52.070;8.596;2022-12-18T02:50:22;8.47;;;3.47;;
55069;SDS011;40967;52.070;8.596;2022-12-18T02:53:04;8.20;;;3.45;;
55069;SDS011;40967;52.070;8.596;2022-12-18T02:58:15;8.45;;;3.95;;
55069;SDS011;40967;52.070;8.596;2022-12-18T03:03:55;8.07;;;3.70;;
55069;SDS011;40967;52.070;8.596;2022-12-18T03:06:29;7.93;;;3.50;;
55069;SDS011;40967;52.070;8.596;2022-12-18T03:08:58;8.57;;;3.83;;
55069;SDS011;40967;52.070;8.596;2022-12-18T03:11:28;7.88;;;3.53;;
55069;SDS011;40967;52.070;8.596;2022-12-18T03:14:17;7.43;;;3.35;;
55069;SDS011;40967;52.070;8.596;2022-12-18T03:16:47;8.20;;;3.55;;
55069;SDS011;40967;52.070;8.596;2022-12-18T03:19:16;7.80;;;3.53;;
55069;SDS011;40967;52.070;8.596;2022-12-18T03:21:46;8.43;;;3.53;;
55069;SDS011;40967;52.070;8.596;2022-12-18T03:24:14;8.32;;;3.90;;
55069;SDS011;40967;52.070;8.596;2022-12-18T03:26:43;9.93;;;4.72;;
55069;SDS011;40967;52.070;8.596;2022-12-18T03:29:54;8.03;;;3.70;;
55069;SDS011;40967;52.070;8.596;2022-12-18T03:32:12;8.23;;;3.67;;
55069;SDS011;40967;52.070;8.596;2022-12-18T03:34:44;8.55;;;3.92;;
55069;SDS011;40967;52.070;8.596;2022-12-18T03:37:15;7.45;;;3.67;;
55069;SDS011;40967;52.070;8.596;2022-12-18T03:39:40;6.80;;;3.30;;
55069;SDS011;40967;52.070;8.596;2022-12-18T03:42:07;7.13;;;3.70;;
55069;SDS011;40967;52.070;8.596;2022-12-18T03:44:40;9.27;;;3.83;;
55069;SDS011;40967;52.070;8.596;2022-12-18T03:47:25;7.95;;;3.80;;
55069;SDS011;40967;52.070;8.596;2022-12-18T03:52:36;9.13;;;3.90;;
55069;SDS011;40967;52.070;8.596;2022-12-18T03:55:07;7.68;;;3.65;;
55069;SDS011;40967;52.070;8.596;2022-12-18T03:57:34;8.82;;;4.10;;
55069;SDS011;40967;52.070;8.596;2022-12-18T04:00:04;9.63;;;4.38;;
55069;SDS011;40967;52.070;8.596;2022-12-18T04:02:30;9.18;;;4.20;;
55069;SDS011;40967;52.070;8.596;2022-12-18T04:04:58;8.73;;;4.00;;
55069;SDS011;40967;52.070;8.596;2022-12-18T04:07:27;8.63;;;4.10;;
55069;SDS011;40967;52.070;8.596;2022-12-18T04:09:54;9.10;;;4.05;;
55069;SDS011;40967;52.070;8.596;2022-12-18T04:12:26;9.98;;;4.43;;
55069;SDS011;40967;52.070;8.596;2022-12-18T04:14:54;8.03;;;3.67;;
55069;SDS011;40967;52.070;8.596;2022-12-18T04:17:19;8.43;;;3.77;;
55069;SDS011;40967;52.070;8.596;2022-12-18T04:19:45;9.88;;;4.10;;
55069;SDS011;40967;52.070;8.596;2022-12-18T04:22:10;9.93;;;4.53;;
55069;SDS011;40967;52.070;8.596;2022-12-18T04:24:36;8.25;;;3.72;;
55069;SDS011;40967;52.070;8.596;2022-12-18T04:27:01;8.02;;;3.90;;
55069;SDS011;40967;52.070;8.596;2022-12-18T04:29:27;8.40;;;3.97;;
55069;SDS011;40967;52.070;8.596;2022-12-18T04:31:53;9.63;;;3.63;;
55069;SDS011;40967;52.070;8.596;2022-12-18T04:34:19;7.93;;;3.67;;
55069;SDS011;40967;52.070;8.596;2022-12-18T04:36:44;7.30;;;3.67;;
55069;SDS011;40967;52.070;8.596;2022-12-18T04:39:10;9.90;;;4.50;;
55069;SDS011;40967;52.070;8.596;2022-12-18T04:41:35;9.23;;;4.07;;
55069;SDS011;40967;52.070;8.596;2022-12-18T04:44:01;7.95;;;3.85;;
55069;SDS011;40967;52.070;8.596;2022-12-18T04:46:26;9.53;;;4.17;;
55069;SDS011;40967;52.070;8.596;2022-12-18T04:48:52;9.33;;;4.17;;
55069;SDS011;40967;52.070;8.596;2022-12-18T04:51:17;9.97;;;4.47;;
55069;SDS011;40967;52.070;8.596;2022-12-18T04:53:42;9.53;;;4.53;;
55069;SDS011;40967;52.070;8.596;2022-12-18T04:56:12;8.20;;;4.07;;
55069;SDS011;40967;52.070;8.596;2022-12-18T04:58:40;7.50;;;3.67;;
55069;SDS011;40967;52.070;8.596;2022-12-18T05:01:06;8.27;;;3.55;;
55069;SDS011;40967;52.070;8.596;2022-12-18T05:03:33;10.35;;;4.20;;
55069;SDS011;40967;52.070;8.596;2022-12-18T05:05:59;8.90;;;4.65;;
55069;SDS011;40967;52.070;8.596;2022-12-18T05:08:25;9.60;;;4.40;;
55069;SDS011;40967;52.070;8.596;2022-12-18T05:13:29;7.43;;;3.95;;
55069;SDS011;40967;52.070;8.596;2022-12-18T05:15:55;8.65;;;4.18;;
55069;SDS011;40967;52.070;8.596;2022-12-18T05:18:22;7.80;;;3.70;;
55069;SDS011;40967;52.070;8.596;2022-12-18T05:20:48;8.25;;;3.80;;
55069;SDS011;40967;52.070;8.596;2022-12-18T05:23:17;7.95;;;3.83;;
55069;SDS011;40967;52.070;8.596;2022-12-18T05:26:05;8.40;;;4.10;;
55069;SDS011;40967;52.070;8.596;2022-12-18T05:28:31;8.00;;;3.80;;
55069;SDS011;40967;52.070;8.596;2022-12-18T05:30:58;8.40;;;3.75;;
55069;SDS011;40967;52.070;8.596;2022-12-18T05:33:28;7.60;;;3.60;;
55069;SDS011;40967;52.070;8.596;2022-12-18T05:35:56;7.47;;;3.58;;
55069;SDS011;40967;52.070;8.596;2022-12-18T05:38:24;7.50;;;3.65;;
55069;SDS011;40967;52.070;8.596;2022-12-18T05:40:51;7.82;;;3.75;;
55069;SDS011;40967;52.070;8.596;2022-12-18T05:43:17;8.43;;;3.75;;
55069;SDS011;40967;52.070;8.596;2022-12-18T05:45:44;8.13;;;3.65;;
55069;SDS011;40967;52.070;8.596;2022-12-18T05:48:12;7.40;;;3.55;;
55069;SDS011;40967;52.070;8.596;2022-12-18T05:50:39;8.07;;;3.60;;
55069;SDS011;40967;52.070;8.596;2022-12-18T05:53:06;8.70;;;3.95;;
55069;SDS011;40967;52.070;8.596;2022-12-18T05:55:33;8.98;;;4.05;;
55069;SDS011;40967;52.070;8.596;2022-12-18T05:57:59;7.45;;;3.50;;
55069;SDS011;40967;52.070;8.596;2022-12-18T06:00:25;8.10;;;3.60;;
55069;SDS011;40967;52.070;8.596;2022-12-18T06:02:50;8.37;;;3.87;;
55069;SDS011;40967;52.070;8.596;2022-12-18T06:05:15;8.40;;;3.53;;
55069;SDS011;40967;52.070;8.596;2022-12-18T06:07:41;8.43;;;3.90;;
55069;SDS011;40967;52.070;8.596;2022-12-18T06:10:06;9.05;;;3.95;;
55069;SDS011;40967;52.070;8.596;2022-12-18T06:12:32;6.93;;;3.23;;
55069;SDS011;40967;52.070;8.596;2022-12-18T06:14:58;9.82;;;3.97;;
55069;SDS011;40967;52.070;8.596;2022-12-18T06:17:28;8.00;;;4.00;;
55069;SDS011;40967;52.070;8.596;2022-12-18T06:19:57;8.60;;;3.80;;
55069;SDS011;40967;52.070;8.596;2022-12-18T06:22:22;9.90;;;4.47;;
55069;SDS011;40967;52.070;8.596;2022-12-18T06:24:48;8.47;;;4.00;;
55069;SDS011;40967;52.070;8.596;2022-12-18T06:27:13;10.85;;;4.25;;
55069;SDS011;40967;52.070;8.596;2022-12-18T06:29:39;8.50;;;4.07;;
55069;SDS011;40967;52.070;8.596;2022-12-18T06:32:04;8.23;;;3.95;;
55069;SDS011;40967;52.070;8.596;2022-12-18T06:34:30;9.40;;;3.77;;
55069;SDS011;40967;52.070;8.596;2022-12-18T06:36:55;7.57;;;3.50;;
55069;SDS011;40967;52.070;8.596;2022-12-18T06:39:20;7.87;;;3.53;;
55069;SDS011;40967;52.070;8.596;2022-12-18T06:41:46;7.57;;;3.50;;
55069;SDS011;40967;52.070;8.596;2022-12-18T06:44:11;7.60;;;3.40;;
55069;SDS011;40967;52.070;8.596;2022-12-18T06:46:36;7.40;;;3.60;;
55069;SDS011;40967;52.070;8.596;2022-12-18T06:49:04;8.82;;;3.70;;
55069;SDS011;40967;52.070;8.596;2022-12-18T06:51:30;8.50;;;4.00;;
55069;SDS011;40967;52.070;8.596;2022-12-18T06:53:55;10.53;;;4.63;;
55069;SDS011;40967;52.070;8.596;2022-12-18T06:56:21;9.38;;;5.07;;
55069;SDS011;40967;52.070;8.596;2022-12-18T06:58:46;11.30;;;5.70;;
55069;SDS011;40967;52.070;8.596;2022-12-18T07:01:14;8.57;;;5.00;;
55069;SDS011;40967;52.070;8.596;2022-12-18T07:03:40;9.93;;;5.03;;
55069;SDS011;40967;52.070;8.596;2022-12-18T07:06:11;10.80;;;5.20;;
55069;SDS011;40967;52.070;8.596;2022-12-18T07:08:39;10.63;;;4.80;;
55069;SDS011;40967;52.070;8.596;2022-12-18T07:11:05;9.40;;;5.00;;
55069;SDS011;40967;52.070;8.596;2022-12-18T07:13:31;10.27;;;5.00;;
55069;SDS011;40967;52.070;8.596;2022-12-18T07:16:02;8.88;;;4.80;;
55069;SDS011;40967;52.070;8.596;2022-12-18T07:18:48;10.80;;;5.22;;
55069;SDS011;40967;52.070;8.596;2022-12-18T07:21:14;11.63;;;5.37;;
55069;SDS011;40967;52.070;8.596;2022-12-18T07:23:42;10.90;;;5.25;;
55069;SDS011;40967;52.070;8.596;2022-12-18T07:26:10;10.25;;;4.63;;
55069;SDS011;40967;52.070;8.596;2022-12-18T07:28:37;9.15;;;4.05;;
55069;SDS011;40967;52.070;8.596;2022-12-18T07:31:04;8.65;;;4.03;;
55069;SDS011;40967;52.070;8.596;2022-12-18T07:33:34;8.87;;;4.00;;
55069;SDS011;40967;52.070;8.596;2022-12-18T07:36:00;8.40;;;4.30;;
55069;SDS011;40967;52.070;8.596;2022-12-18T07:38:29;8.48;;;4.22;;
55069;SDS011;40967;52.070;8.596;2022-12-18T07:41:00;9.20;;;4.32;;
55069;SDS011;40967;52.070;8.596;2022-12-18T07:43:29;8.18;;;3.85;;
55069;SDS011;40967;52.070;8.596;2022-12-18T07:45:54;8.43;;;4.00;;
55069;SDS011;40967;52.070;8.596;2022-12-18T07:48:20;10.70;;;4.90;;
55069;SDS011;40967;52.070;8.596;2022-12-18T07:50:45;7.65;;;4.07;;
55069;SDS011;40967;52.070;8.596;2022-12-18T07:53:11;10.40;;;4.33;;
55069;SDS011;40967;52.070;8.596;2022-12-18T07:55:36;9.82;;;4.65;;
55069;SDS011;40967;52.070;8.596;2022-12-18T07:58:02;10.77;;;4.73;;
55069;SDS011;40967;52.070;8.596;2022-12-18T08:00:29;9.55;;;4.10;;
55069;SDS011;40967;52.070;8.596;2022-12-18T08:02:54;9.13;;;4.43;;
55069;SDS011;40967;52.070;8.596;2022-12-18T08:05:20;8.93;;;4.10;;
55069;SDS011;40967;52.070;8.596;2022-12-18T08:07:46;9.35;;;4.45;;
55069;SDS011;40967;52.070;8.596;2022-12-18T08:10:11;9.20;;;4.67;;
55069;SDS011;40967;52.070;8.596;2022-12-18T08:12:36;11.57;;;5.43;;
55069;SDS011;40967;52.070;8.596;2022-12-18T08:15:02;10.60;;;5.43;;
55069;SDS011;40967;52.070;8.596;2022-12-18T08:17:27;10.10;;;5.20;;
55069;SDS011;40967;52.070;8.596;2022-12-18T08:19:53;13.85;;;6.90;;
55069;SDS011;40967;52.070;8.596;2022-12-18T08:22:18;12.23;;;6.90;;
55069;SDS011;40967;52.070;8.596;2022-12-18T08:24:44;14.83;;;7.80;;
55069;SDS011;40967;52.070;8.596;2022-12-18T08:27:09;17.05;;;9.57;;
55069;SDS011;40967;52.070;8.596;2022-12-18T08:29:35;18.37;;;10.07;;
55069;SDS011;40967;52.070;8.596;2022-12-18T08:32:00;19.23;;;10.53;;
55069;SDS011;40967;52.070;8.596;2022-12-18T08:34:25;21.23;;;12.30;;
55069;SDS011;40967;52.070;8.596;2022-12-18T08:36:51;23.70;;;12.13;;
55069;SDS011;40967;52.070;8.596;2022-12-18T08:39:16;22.40;;;11.67;;
55069;SDS011;40967;52.070;8.596;2022-12-18T08:41:42;23.27;;;12.00;;
55069;SDS011;40967;52.070;8.596;2022-12-18T08:44:07;22.17;;;11.13;;
55069;SDS011;40967;52.070;8.596;2022-12-18T08:46:51;18.95;;;10.10;;
55069;SDS011;40967;52.070;8.596;2022-12-18T08:49:17;16.57;;;8.97;;
55069;SDS011;40967;52.070;8.596;2022-12-18T08:51:43;16.50;;;8.43;;
55069;SDS011;40967;52.070;8.596;2022-12-18T08:54:10;16.70;;;8.93;;
55069;SDS011;40967;52.070;8.596;2022-12-18T08:56:37;15.13;;;8.10;;
55069;SDS011;40967;52.070;8.596;2022-12-18T08:59:03;16.17;;;8.40;;
55069;SDS011;40967;52.070;8.596;2022-12-18T09:01:29;16.60;;;8.30;;
55069;SDS011;40967;52.070;8.596;2022-12-18T09:03:55;17.42;;;9.00;;
55069;SDS011;40967;52.070;8.596;2022-12-18T09:06:23;14.90;;;7.25;;
55069;SDS011;40967;52.070;8.596;2022-12-18T09:08:49;15.13;;;7.07;;
55069;SDS011;40967;52.070;8.596;2022-12-18T09:11:21;13.15;;;6.53;;
55069;SDS011;40967;52.070;8.596;2022-12-18T09:13:49;13.25;;;7.00;;
55069;SDS011;40967;52.070;8.596;2022-12-18T09:16:15;12.80;;;6.85;;
55069;SDS011;40967;52.070;8.596;2022-12-18T09:18:41;12.23;;;6.32;;
55069;SDS011;40967;52.070;8.596;2022-12-18T09:21:11;13.65;;;6.75;;
55069;SDS011;40967;52.070;8.596;2022-12-18T09:23:40;12.88;;;6.10;;
55069;SDS011;40967;52.070;8.596;2022-12-18T09:26:20;15.82;;;6.47;;
55069;SDS011;40967;52.070;8.596;2022-12-18T09:28:46;11.43;;;5.50;;
55069;SDS011;40967;52.070;8.596;2022-12-18T09:31:15;10.55;;;5.38;;
55069;SDS011;40967;52.070;8.596;2022-12-18T09:33:42;11.25;;;4.97;;
55069;SDS011;40967;52.070;8.596;2022-12-18T09:36:08;10.87;;;5.50;;
55069;SDS011;40967;52.070;8.596;2022-12-18T09:38:36;9.93;;;5.25;;
55069;SDS011;40967;52.070;8.596;2022-12-18T09:43:54;13.00;;;5.85;;
55069;SDS011;40967;52.070;8.596;2022-12-18T09:46:25;10.90;;;5.60;;
55069;SDS011;40967;52.070;8.596;2022-12-18T09:48:55;12.13;;;5.82;;
55069;SDS011;40967;52.070;8.596;2022-12-18T09:51:29;10.60;;;5.18;;
55069;SDS011;40967;52.070;8.596;2022-12-18T09:54:06;10.68;;;5.03;;
55069;SDS011;40967;52.070;8.596;2022-12-18T09:56:37;12.80;;;5.87;;
55069;SDS011;40967;52.070;8.596;2022-12-18T09:59:09;11.40;;;5.90;;
55069;SDS011;40967;52.070;8.596;2022-12-18T10:01:43;12.10;;;5.97;;
55069;SDS011;40967;52.070;8.596;2022-12-18T10:04:08;11.68;;;6.07;;
55069;SDS011;40967;52.070;8.596;2022-12-18T10:06:36;11.35;;;5.72;;
55069;SDS011;40967;52.070;8.596;2022-12-18T10:17:51;11.48;;;5.68;;
55069;SDS011;40967;52.070;8.596;2022-12-18T10:23:24;12.32;;;5.70;;
55069;SDS011;40967;52.070;8.596;2022-12-18T10:26:00;11.02;;;5.60;;
55069;SDS011;40967;52.070;8.596;2022-12-18T10:28:27;11.30;;;5.85;;
55069;SDS011;40967;52.070;8.596;2022-12-18T10:30:55;10.10;;;5.15;;
55069;SDS011;40967;52.070;8.596;2022-12-18T10:33:22;11.80;;;5.73;;
55069;SDS011;40967;52.070;8.596;2022-12-18T10:35:52;11.10;;;5.93;;
55069;SDS011;40967;52.070;8.596;2022-12-18T10:40:48;11.43;;;6.20;;
55069;SDS011;40967;52.070;8.596;2022-12-18T10:43:31;11.07;;;5.38;;
55069;SDS011;40967;52.070;8.596;2022-12-18T10:46:02;9.32;;;4.57;;
55069;SDS011;40967;52.070;8.596;2022-12-18T10:48:30;10.68;;;5.60;;
55069;SDS011;40967;52.070;8.596;2022-12-18T10:50:58;9.77;;;4.63;;
55069;SDS011;40967;52.070;8.596;2022-12-18T10:53:25;7.78;;;4.00;;
55069;SDS011;40967;52.070;8.596;2022-12-18T10:58:57;8.98;;;4.30;;
55069;SDS011;40967;52.070;8.596;2022-12-18T11:01:25;9.30;;;4.18;;
55069;SDS011;40967;52.070;8.596;2022-12-18T11:06:20;9.73;;;5.32;;
55069;SDS011;40967;52.070;8.596;2022-12-18T11:11:49;9.50;;;4.20;;
55069;SDS011;40967;52.070;8.596;2022-12-18T11:17:18;10.10;;;5.55;;
55069;SDS011;40967;52.070;8.596;2022-12-18T11:19:45;9.13;;;5.25;;
55069;SDS011;40967;52.070;8.596;2022-12-18T11:22:36;12.03;;;6.00;;
55069;SDS011;40967;52.070;8.596;2022-12-18T11:25:17;10.15;;;4.80;;
55069;SDS011;40967;52.070;8.596;2022-12-18T11:27:48;10.32;;;5.22;;
55069;SDS011;40967;52.070;8.596;2022-12-18T11:32:48;10.75;;;5.68;;
55069;SDS011;40967;52.070;8.596;2022-12-18T11:35:29;11.95;;;5.75;;
55069;SDS011;40967;52.070;8.596;2022-12-18T11:38:29;10.10;;;5.80;;
55069;SDS011;40967;52.070;8.596;2022-12-18T11:40:51;9.80;;;5.20;;
55069;SDS011;40967;52.070;8.596;2022-12-18T11:43:21;11.00;;;5.55;;
55069;SDS011;40967;52.070;8.596;2022-12-18T11:45:59;8.80;;;4.78;;
55069;SDS011;40967;52.070;8.596;2022-12-18T11:48:30;11.43;;;5.75;;
55069;SDS011;40967;52.070;8.596;2022-12-18T11:50:58;9.60;;;4.90;;
55069;SDS011;40967;52.070;8.596;2022-12-18T11:53:26;10.75;;;5.22;;
55069;SDS011;40967;52.070;8.596;2022-12-18T11:55:58;10.45;;;5.63;;
55069;SDS011;40967;52.070;8.596;2022-12-18T11:58:42;11.65;;;6.05;;
55069;SDS011;40967;52.070;8.596;2022-12-18T12:20:53;11.80;;;6.22;;
55069;SDS011;40967;52.070;8.596;2022-12-18T12:23:57;9.60;;;5.07;;
55069;SDS011;40967;52.070;8.596;2022-12-18T12:26:21;9.97;;;5.17;;
55069;SDS011;40967;52.070;8.596;2022-12-18T12:39:36;8.93;;;4.32;;
55069;SDS011;40967;52.070;8.596;2022-12-18T12:42:06;8.77;;;4.10;;
55069;SDS011;40967;52.070;8.596;2022-12-18T12:44:59;8.43;;;3.93;;
55069;SDS011;40967;52.070;8.596;2022-12-18T12:47:30;7.55;;;3.90;;
55069;SDS011;40967;52.070;8.596;2022-12-18T12:50:03;7.78;;;3.67;;
55069;SDS011;40967;52.070;8.596;2022-12-18T12:52:47;7.53;;;3.80;;
55069;SDS011;40967;52.070;8.596;2022-12-18T12:55:17;7.55;;;3.70;;
55069;SDS011;40967;52.070;8.596;2022-12-18T12:57:49;7.57;;;3.90;;
55069;SDS011;40967;52.070;8.596;2022-12-18T13:00:23;8.65;;;3.97;;
55069;SDS011;40967;52.070;8.596;2022-12-18T13:05:51;9.52;;;4.38;;
55069;SDS011;40967;52.070;8.596;2022-12-18T13:10:51;17.70;;;7.93;;
55069;SDS011;40967;52.070;8.596;2022-12-18T13:13:50;22.52;;;11.50;;
55069;SDS011;40967;52.070;8.596;2022-12-18T13:16:18;18.52;;;10.05;;
55069;SDS011;40967;52.070;8.596;2022-12-18T13:18:51;16.70;;;9.77;;
55069;SDS011;40967;52.070;8.596;2022-12-18T13:24:15;13.77;;;8.38;;
55069;SDS011;40967;52.070;8.596;2022-12-18T13:26:50;14.82;;;8.05;;
55069;SDS011;40967;52.070;8.596;2022-12-18T13:32:40;11.53;;;6.63;;
55069;SDS011;40967;52.070;8.596;2022-12-18T13:37:45;12.32;;;6.47;;
55069;SDS011;40967;52.070;8.596;2022-12-18T13:43:23;13.95;;;6.97;;
55069;SDS011;40967;52.070;8.596;2022-12-18T13:46:01;10.15;;;5.60;;
55069;SDS011;40967;52.070;8.596;2022-12-18T13:48:27;11.40;;;5.97;;
55069;SDS011;40967;52.070;8.596;2022-12-18T13:51:06;11.00;;;5.80;;
55069;SDS011;40967;52.070;8.596;2022-12-18T13:53:44;12.35;;;6.18;;
55069;SDS011;40967;52.070;8.596;2022-12-18T13:56:15;14.85;;;7.95;;
55069;SDS011;40967;52.070;8.596;2022-12-18T13:59:02;13.98;;;7.63;;
55069;SDS011;40967;52.070;8.596;2022-12-18T14:04:38;13.02;;;6.68;;
55069;SDS011;40967;52.070;8.596;2022-12-18T14:07:05;11.87;;;6.60;;
55069;SDS011;40967;52.070;8.596;2022-12-18T14:09:39;11.52;;;6.15;;
55069;SDS011;40967;52.070;8.596;2022-12-18T14:15:25;9.95;;;5.10;;
55069;SDS011;40967;52.070;8.596;2022-12-18T14:18:00;8.10;;;4.33;;
55069;SDS011;40967;52.070;8.596;2022-12-18T14:20:28;8.55;;;4.47;;
55069;SDS011;40967;52.070;8.596;2022-12-18T14:22:56;9.20;;;4.70;;
55069;SDS011;40967;52.070;8.596;2022-12-18T14:25:23;8.27;;;4.43;;
55069;SDS011;40967;52.070;8.596;2022-12-18T14:30:28;8.38;;;4.38;;
55069;SDS011;40967;52.070;8.596;2022-12-18T14:33:02;8.48;;;4.82;;
55069;SDS011;40967;52.070;8.596;2022-12-18T14:35:35;8.90;;;4.60;;
55069;SDS011;40967;52.070;8.596;2022-12-18T14:41:01;9.57;;;5.38;;
55069;SDS011;40967;52.070;8.596;2022-12-18T14:43:29;8.10;;;4.43;;
55069;SDS011;40967;52.070;8.596;2022-12-18T14:45:57;9.00;;;4.45;;
55069;SDS011;40967;52.070;8.596;2022-12-18T14:53:43;11.10;;;4.60;;
55069;SDS011;40967;52.070;8.596;2022-12-18T14:56:14;9.57;;;5.10;;
55069;SDS011;40967;52.070;8.596;2022-12-18T14:58:46;8.88;;;4.40;;
55069;SDS011;40967;52.070;8.596;2022-12-18T15:01:39;8.68;;;4.13;;
55069;SDS011;40967;52.070;8.596;2022-12-18T15:04:36;10.00;;;5.13;;
55069;SDS011;40967;52.070;8.596;2022-12-18T15:07:10;10.77;;;5.28;;
55069;SDS011;40967;52.070;8.596;2022-12-18T15:09:37;9.25;;;4.63;;
55069;SDS011;40967;52.070;8.596;2022-12-18T15:12:03;8.48;;;4.43;;
55069;SDS011;40967;52.070;8.596;2022-12-18T15:14:47;9.60;;;4.65;;
55069;SDS011;40967;52.070;8.596;2022-12-18T15:17:19;8.43;;;4.03;;
55069;SDS011;40967;52.070;8.596;2022-12-18T15:19:48;9.63;;;4.47;;
55069;SDS011;40967;52.070;8.596;2022-12-18T15:24:55;9.25;;;4.35;;
55069;SDS011;40967;52.070;8.596;2022-12-18T15:27:23;8.50;;;4.55;;
55069;SDS011;40967;52.070;8.596;2022-12-18T15:30:10;11.27;;;5.75;;
55069;SDS011;40967;52.070;8.596;2022-12-18T15:35:55;9.60;;;4.97;;
55069;SDS011;40967;52.070;8.596;2022-12-18T15:38:22;10.63;;;5.50;;
55069;SDS011;40967;52.070;8.596;2022-12-18T15:40:48;9.97;;;5.40;;
55069;SDS011;40967;52.070;8.596;2022-12-18T15:43:13;11.60;;;6.00;;
55069;SDS011;40967;52.070;8.596;2022-12-18T15:45:57;9.88;;;5.25;;
55069;SDS011;40967;52.070;8.596;2022-12-18T15:48:22;10.70;;;5.10;;
55069;SDS011;40967;52.070;8.596;2022-12-18T15:50:51;10.50;;;5.07;;
55069;SDS011;40967;52.070;8.596;2022-12-18T15:53:18;10.82;;;5.20;;
55069;SDS011;40967;52.070;8.596;2022-12-18T15:55:44;8.88;;;4.80;;
55069;SDS011;40967;52.070;8.596;2022-12-18T15:58:28;11.18;;;5.90;;
55069;SDS011;40967;52.070;8.596;2022-12-18T16:00:54;11.30;;;6.00;;
55069;SDS011;40967;52.070;8.596;2022-12-18T16:03:21;13.55;;;6.43;;
55069;SDS011;40967;52.070;8.596;2022-12-18T16:05:46;11.63;;;5.72;;
55069;SDS011;40967;52.070;8.596;2022-12-18T16:08:12;12.07;;;6.00;;
55069;SDS011;40967;52.070;8.596;2022-12-18T16:10:37;9.80;;;5.33;;
55069;SDS011;40967;52.070;8.596;2022-12-18T16:13:02;9.97;;;4.90;;
55069;SDS011;40967;52.070;8.596;2022-12-18T16:15:28;9.23;;;4.40;;
55069;SDS011;40967;52.070;8.596;2022-12-18T16:17:53;9.18;;;4.82;;
55069;SDS011;40967;52.070;8.596;2022-12-18T16:20:20;12.40;;;6.03;;
55069;SDS011;40967;52.070;8.596;2022-12-18T16:22:47;11.00;;;5.68;;
55069;SDS011;40967;52.070;8.596;2022-12-18T16:25:24;11.93;;;6.18;;
55069;SDS011;40967;52.070;8.596;2022-12-18T16:27:52;10.40;;;5.45;;
55069;SDS011;40967;52.070;8.596;2022-12-18T16:30:22;13.67;;;7.20;;
55069;SDS011;40967;52.070;8.596;2022-12-18T16:32:53;11.30;;;5.25;;
55069;SDS011;40967;52.070;8.596;2022-12-18T16:35:19;11.23;;;5.60;;
55069;SDS011;40967;52.070;8.596;2022-12-18T16:37:45;9.75;;;5.00;;
55069;SDS011;40967;52.070;8.596;2022-12-18T16:40:11;19.70;;;8.43;;
55069;SDS011;40967;52.070;8.596;2022-12-18T16:42:39;10.33;;;5.60;;
55069;SDS011;40967;52.070;8.596;2022-12-18T16:45:06;12.82;;;6.70;;
55069;SDS011;40967;52.070;8.596;2022-12-18T16:47:33;12.98;;;7.10;;
55069;SDS011;40967;52.070;8.596;2022-12-18T16:49:59;12.45;;;6.95;;
55069;SDS011;40967;52.070;8.596;2022-12-18T16:52:24;14.80;;;7.53;;
55069;SDS011;40967;52.070;8.596;2022-12-18T16:54:50;14.17;;;7.33;;
55069;SDS011;40967;52.070;8.596;2022-12-18T16:57:17;14.05;;;7.32;;
55069;SDS011;40967;52.070;8.596;2022-12-18T16:59:44;15.52;;;7.63;;
55069;SDS011;40967;52.070;8.596;2022-12-18T17:04:42;12.88;;;6.65;;